Time;durP1;ratioP1;P1;durP2;ratioP2;P2;SDS_P1;SDS_P2;PMS_P1;PMS_P2;Temp;Humidity;BMP_temperature;BMP_pressure;BME280_temperature;BME280_humidity;BME280_pressure;Samples;Min_cycle;Max_cycle;Signal;HPM_P1;HPM_P2
2021/10/25 00:02:12;;;;;;;13.65;12.45;;;6.10;99.90;;;;;;6167250;23;20179;-82
2021/10/25 00:04:39;;;;;;;14.30;13.05;;;6.10;99.90;;;;;;6167071;23;20254;-81
2021/10/25 00:07:06;;;;;;;12.80;11.63;;;6.10;99.90;;;;;;6165440;23;20190;-84
2021/10/25 00:09:33;;;;;;;15.88;14.23;;;6.10;99.90;;;;;;6166173;23;20207;-82
2021/10/25 00:12:00;;;;;;;18.63;16.23;;;6.00;99.90;;;;;;6167841;23;20263;-81
2021/10/25 00:14:27;;;;;;;15.20;13.63;;;5.90;99.90;;;;;;6167282;23;20186;-82
2021/10/25 00:16:55;;;;;;;14.48;12.90;;;6.00;99.90;;;;;;6167267;23;20179;-81
2021/10/25 00:19:22;;;;;;;14.32;12.75;;;5.90;99.90;;;;;;6167003;23;20199;-81
2021/10/25 00:21:50;;;;;;;15.35;13.70;;;5.90;99.90;;;;;;6166990;23;20206;-82
2021/10/25 00:24:17;;;;;;;15.63;14.20;;;5.90;99.90;;;;;;6166867;23;20183;-82
2021/10/25 00:26:44;;;;;;;14.70;13.27;;;5.80;99.90;;;;;;6165550;23;20179;-81
2021/10/25 00:29:11;;;;;;;17.63;14.98;;;5.80;99.90;;;;;;6166922;23;20203;-82
2021/10/25 00:31:38;;;;;;;18.65;16.45;;;5.80;99.90;;;;;;6167596;23;20195;-81
2021/10/25 00:34:06;;;;;;;18.98;15.48;;;5.80;99.90;;;;;;6166916;23;20183;-82
2021/10/25 00:36:33;;;;;;;17.13;15.43;;;5.80;99.90;;;;;;6167388;23;20190;-82
2021/10/25 00:39:00;;;;;;;16.83;14.55;;;5.70;99.90;;;;;;6166153;23;20183;-82
2021/10/25 00:41:27;;;;;;;16.92;14.07;;;5.80;99.90;;;;;;6166457;23;20179;-81
2021/10/25 00:43:53;;;;;;;15.40;14.05;;;5.80;99.90;;;;;;6165973;23;20180;-82
2021/10/25 00:46:20;;;;;;;19.38;17.15;;;5.80;99.90;;;;;;6165379;23;20179;-82
2021/10/25 00:48:47;;;;;;;17.38;15.57;;;5.70;99.90;;;;;;6166198;23;20201;-81
2021/10/25 00:51:15;;;;;;;15.35;13.75;;;5.80;99.90;;;;;;6165777;23;20195;-81
2021/10/25 00:53:42;;;;;;;16.02;13.57;;;5.80;99.90;;;;;;6165237;23;20185;-81
2021/10/25 00:56:10;;;;;;;16.33;14.65;;;5.80;99.90;;;;;;6165994;23;20187;-81
2021/10/25 00:58:37;;;;;;;16.42;14.10;;;5.90;99.90;;;;;;6165421;23;20555;-81
2021/10/25 01:01:04;;;;;;;16.70;15.00;;;5.90;99.90;;;;;;6166780;23;20203;-82
2021/10/25 01:03:31;;;;;;;17.35;15.52;;;5.90;99.90;;;;;;6166966;23;20211;-81
2021/10/25 01:05:58;;;;;;;16.30;13.48;;;6.00;99.90;;;;;;6165912;23;20505;-82
2021/10/25 01:08:28;;;;;;;19.30;16.90;;;5.90;99.90;;;;;;6166188;23;20245;-84
2021/10/25 01:10:55;;;;;;;16.50;13.80;;;5.90;99.90;;;;;;6165758;23;20206;-82
2021/10/25 01:13:22;;;;;;;16.83;15.20;;;6.00;99.90;;;;;;6166046;23;20182;-81
2021/10/25 01:15:48;;;;;;;14.75;13.32;;;6.00;99.90;;;;;;6165646;23;20189;-82
2021/10/25 01:18:15;;;;;;;17.80;16.00;;;6.00;99.90;;;;;;6166046;23;20191;-82
2021/10/25 01:20:43;;;;;;;14.73;13.23;;;6.10;99.90;;;;;;6165826;23;20281;-81
2021/10/25 01:23:10;;;;;;;15.07;12.90;;;6.10;99.90;;;;;;6166174;23;20178;-82
2021/10/25 01:25:37;;;;;;;13.48;12.23;;;6.10;99.90;;;;;;6164989;23;20218;-82
2021/10/25 01:28:04;;;;;;;15.88;14.18;;;6.10;99.90;;;;;;6165692;23;20187;-82
2021/10/25 01:30:32;;;;;;;14.90;12.88;;;6.10;99.90;;;;;;6165329;23;20199;-80
2021/10/25 01:32:58;;;;;;;15.32;13.15;;;6.10;99.90;;;;;;6166174;23;20231;-82
2021/10/25 01:35:25;;;;;;;14.40;12.43;;;6.10;99.90;;;;;;6165281;23;20191;-81
2021/10/25 01:37:53;;;;;;;16.10;14.20;;;6.10;99.90;;;;;;6166211;23;20183;-81
2021/10/25 01:40:21;;;;;;;14.73;13.20;;;6.10;99.90;;;;;;6164998;23;20203;-84
2021/10/25 01:42:48;;;;;;;15.05;13.52;;;6.20;99.90;;;;;;6165975;23;20179;-84
2021/10/25 01:45:15;;;;;;;14.82;12.25;;;6.20;99.90;;;;;;6164315;23;20183;-82
2021/10/25 01:47:41;;;;;;;15.48;13.98;;;6.10;99.90;;;;;;6165673;23;20234;-82
2021/10/25 01:50:09;;;;;;;17.67;13.70;;;6.10;99.90;;;;;;6164828;23;20199;-83
2021/10/25 01:52:36;;;;;;;14.88;13.68;;;6.10;99.90;;;;;;6165489;23;20209;-81
2021/10/25 01:55:05;;;;;;;15.80;14.10;;;6.10;99.90;;;;;;6165263;23;20511;-82
2021/10/25 01:57:32;;;;;;;17.40;13.77;;;6.00;99.90;;;;;;6165746;23;20223;-80
2021/10/25 01:59:59;;;;;;;14.93;13.50;;;6.00;99.90;;;;;;6169222;23;20211;-81
2021/10/25 02:02:26;;;;;;;16.02;13.57;;;5.90;99.90;;;;;;6169283;23;20179;-81
2021/10/25 02:04:52;;;;;;;16.50;14.32;;;5.90;99.90;;;;;;6169871;23;20209;-81
2021/10/25 02:07:19;;;;;;;17.33;15.68;;;5.90;99.90;;;;;;6165054;23;20183;-81
2021/10/25 02:09:46;;;;;;;16.23;14.63;;;5.90;99.90;;;;;;6164693;23;20204;-81
2021/10/25 02:12:15;;;;;;;17.95;15.43;;;5.80;99.90;;;;;;6165390;23;20213;-81
2021/10/25 02:14:42;;;;;;;16.58;14.13;;;5.70;99.90;;;;;;6165489;23;20214;-81
2021/10/25 02:17:08;;;;;;;15.57;14.07;;;5.70;99.90;;;;;;6164448;23;20179;-82
2021/10/25 02:19:35;;;;;;;15.63;14.10;;;5.70;99.90;;;;;;6164927;23;20207;-84
2021/10/25 02:22:02;;;;;;;15.45;13.85;;;5.80;99.90;;;;;;6165135;23;20175;-84
2021/10/25 02:24:29;;;;;;;14.50;13.00;;;5.80;99.90;;;;;;6166014;23;20505;-84
2021/10/25 02:26:56;;;;;;;14.73;13.20;;;5.80;99.90;;;;;;6165489;23;20183;-84
2021/10/25 02:29:24;;;;;;;14.98;13.65;;;5.80;99.90;;;;;;6165355;23;20222;-81
2021/10/25 02:31:51;;;;;;;15.27;13.82;;;5.80;99.90;;;;;;6166410;23;20195;-81
2021/10/25 02:34:18;;;;;;;16.52;14.82;;;5.80;99.90;;;;;;6164401;23;20183;-82
2021/10/25 02:36:45;;;;;;;21.58;14.93;;;5.80;99.90;;;;;;6164352;23;20303;-82
2021/10/25 02:39:11;;;;;;;21.02;15.13;;;5.80;99.90;;;;;;6164214;23;20209;-82
2021/10/25 02:41:39;;;;;;;16.20;14.43;;;5.80;99.90;;;;;;6165624;23;20179;-82
2021/10/25 02:44:06;;;;;;;17.25;15.05;;;5.80;99.90;;;;;;6164042;23;20201;-82
2021/10/25 02:46:34;;;;;;;18.27;15.80;;;5.70;99.90;;;;;;6163409;23;20262;-82
2021/10/25 02:49:01;;;;;;;17.13;15.32;;;5.70;99.90;;;;;;6164123;23;20183;-81
2021/10/25 02:51:28;;;;;;;15.23;13.55;;;5.70;99.90;;;;;;6165051;23;20198;-84
2021/10/25 02:53:54;;;;;;;13.70;12.40;;;5.70;99.90;;;;;;6164985;23;20520;-81
2021/10/25 02:56:21;;;;;;;15.85;14.43;;;5.70;99.90;;;;;;6164404;23;20183;-81
2021/10/25 02:58:48;;;;;;;14.85;13.05;;;5.60;99.90;;;;;;6164741;23;20183;-81
2021/10/25 03:01:15;;;;;;;16.13;14.50;;;5.60;99.90;;;;;;6161503;23;20211;-80
2021/10/25 03:03:44;;;;;;;13.43;11.93;;;5.50;99.90;;;;;;6162313;23;20187;-80
2021/10/25 03:06:10;;;;;;;17.23;14.13;;;5.60;99.90;;;;;;6161304;23;20183;-80
2021/10/25 03:08:38;;;;;;;15.38;13.80;;;5.60;99.90;;;;;;6162412;23;20186;-80
2021/10/25 03:11:05;;;;;;;18.02;16.30;;;5.50;99.90;;;;;;6163429;23;20203;-80
2021/10/25 03:13:32;;;;;;;15.60;13.50;;;5.60;99.90;;;;;;6163952;23;20179;-80
2021/10/25 03:15:59;;;;;;;16.23;13.60;;;5.50;99.90;;;;;;6163976;23;20189;-80
2021/10/25 03:18:26;;;;;;;14.35;12.25;;;5.50;99.90;;;;;;6164349;23;20183;-80
2021/10/25 03:20:54;;;;;;;15.75;13.38;;;5.50;99.90;;;;;;6164505;23;20532;-80
2021/10/25 03:23:23;;;;;;;17.08;13.30;;;5.50;99.90;;;;;;6163892;23;20516;-80
2021/10/25 03:25:50;;;;;;;14.82;12.85;;;5.50;99.90;;;;;;6164516;23;20190;-80
2021/10/25 03:28:17;;;;;;;15.07;12.77;;;5.40;99.90;;;;;;6164113;23;20183;-80
2021/10/25 03:30:44;;;;;;;15.82;14.23;;;5.40;99.90;;;;;;6163234;23;20226;-80
2021/10/25 03:33:11;;;;;;;16.45;13.90;;;5.50;99.90;;;;;;6163536;23;20203;-80
2021/10/25 03:35:38;;;;;;;14.88;13.50;;;5.50;99.90;;;;;;6163509;23;20187;-81
2021/10/25 03:38:09;;;;;;;13.73;12.32;;;5.40;99.90;;;;;;6164323;23;20179;-80
2021/10/25 03:40:36;;;;;;;15.65;13.20;;;5.40;99.90;;;;;;6164212;23;20534;-80
2021/10/25 03:43:03;;;;;;;16.15;13.32;;;5.40;99.90;;;;;;6163742;23;20548;-80
2021/10/25 03:45:34;;;;;;;16.02;14.63;;;5.30;99.90;;;;;;6163559;23;20630;-80
2021/10/25 03:48:06;;;;;;;15.45;13.90;;;5.30;99.90;;;;;;6163854;23;20171;-80
2021/10/25 03:50:35;;;;;;;17.10;15.40;;;5.20;99.90;;;;;;6163719;23;20670;-80
2021/10/25 03:53:06;;;;;;;15.07;13.48;;;5.20;99.90;;;;;;6164120;23;20203;-80
2021/10/25 03:55:39;;;;;;;16.38;14.13;;;5.10;99.90;;;;;;6163131;23;20176;-80
2021/10/25 03:58:39;;;;;;;13.95;12.40;;;5.00;99.90;;;;;;6163290;23;20171;-80
2021/10/25 04:01:30;;;;;;;16.27;13.43;;;4.90;99.90;;;;;;6163430;23;20210;-80
2021/10/25 04:04:24;;;;;;;13.55;12.25;;;4.80;99.90;;;;;;6163920;23;20156;-80
2021/10/25 04:26:23;;;;;;;12.95;11.65;;;4.30;99.90;;;;;;6163426;23;20162;-80
2021/10/25 04:28:51;;;;;;;14.02;12.30;;;4.30;99.90;;;;;;6164409;23;20173;-80
2021/10/25 04:31:18;;;;;;;14.85;13.38;;;4.30;99.90;;;;;;6162898;23;20203;-80
2021/10/25 04:33:45;;;;;;;13.15;11.75;;;4.30;99.90;;;;;;6163567;23;20201;-80
2021/10/25 04:36:11;;;;;;;13.80;12.30;;;4.30;99.90;;;;;;6163245;23;20186;-79
2021/10/25 04:38:38;;;;;;;14.23;12.73;;;4.30;99.90;;;;;;6162968;23;20194;-80
2021/10/25 04:41:05;;;;;;;12.73;11.40;;;4.30;99.90;;;;;;6163003;23;20205;-80
2021/10/25 04:43:32;;;;;;;12.90;11.70;;;4.30;99.90;;;;;;6162714;23;20181;-80
2021/10/25 04:46:00;;;;;;;14.25;12.85;;;4.30;99.90;;;;;;6162650;23;20182;-80
2021/10/25 04:48:28;;;;;;;13.15;11.75;;;4.30;99.90;;;;;;6163701;23;20188;-81
2021/10/25 04:50:55;;;;;;;13.52;11.88;;;4.30;99.90;;;;;;6162839;23;20206;-80
2021/10/25 04:53:22;;;;;;;13.93;12.00;;;4.40;99.90;;;;;;6162949;23;20206;-80
2021/10/25 04:55:48;;;;;;;15.07;13.65;;;4.40;99.90;;;;;;6162181;23;20186;-80
2021/10/25 04:58:15;;;;;;;12.80;11.55;;;4.40;99.90;;;;;;6163255;23;20179;-80
2021/10/25 05:00:42;;;;;;;13.85;12.13;;;4.30;99.90;;;;;;6162367;23;20207;-80
2021/10/25 05:03:10;;;;;;;14.05;10.27;;;4.30;99.90;;;;;;6162058;23;20178;-80
2021/10/25 05:05:37;;;;;;;13.13;11.73;;;4.30;99.90;;;;;;6162182;23;20269;-80
2021/10/25 05:08:04;;;;;;;12.75;11.55;;;4.30;99.90;;;;;;6162146;23;20701;-80
2021/10/25 05:10:31;;;;;;;13.98;12.48;;;4.30;99.90;;;;;;6162078;23;20206;-80
2021/10/25 05:13:00;;;;;;;12.85;11.55;;;4.30;99.90;;;;;;6162144;23;20289;-79
2021/10/25 05:15:27;;;;;;;13.85;11.95;;;4.30;99.90;;;;;;6162176;23;20183;-80
2021/10/25 05:17:56;;;;;;;11.60;10.70;;;4.30;99.90;;;;;;6163227;23;20190;-80
2021/10/25 05:20:25;;;;;;;11.63;10.32;;;4.30;99.90;;;;;;6161458;23;20199;-80
2021/10/25 05:22:51;;;;;;;13.40;12.15;;;4.30;99.90;;;;;;6162868;23;20182;-80
2021/10/25 05:25:19;;;;;;;12.75;11.55;;;4.20;99.90;;;;;;6162311;23;20189;-80
2021/10/25 05:27:46;;;;;;;13.60;12.30;;;4.20;99.90;;;;;;6163733;23;20194;-80
2021/10/25 05:30:12;;;;;;;13.88;12.57;;;4.20;99.90;;;;;;6165000;23;20207;-80
2021/10/25 05:32:39;;;;;;;14.18;11.40;;;4.20;99.90;;;;;;6164270;23;20205;-80
2021/10/25 05:35:06;;;;;;;12.43;11.02;;;4.20;99.90;;;;;;6164884;23;20179;-80
2021/10/25 05:37:35;;;;;;;12.85;11.65;;;4.20;99.90;;;;;;6163345;23;20183;-80
2021/10/25 05:40:02;;;;;;;12.48;11.38;;;4.20;99.90;;;;;;6165612;23;20199;-80
2021/10/25 05:42:29;;;;;;;12.32;11.13;;;4.20;99.90;;;;;;6166508;23;20234;-80
2021/10/25 05:44:55;;;;;;;13.15;11.93;;;4.20;99.90;;;;;;6165959;23;20182;-80
2021/10/25 05:47:23;;;;;;;12.43;10.52;;;4.20;99.90;;;;;;6164792;23;20184;-80
2021/10/25 05:49:50;;;;;;;13.50;11.65;;;4.20;99.90;;;;;;6165118;23;20199;-80
2021/10/25 05:52:17;;;;;;;12.07;11.10;;;4.20;99.90;;;;;;6165535;23;20199;-80
2021/10/25 05:54:45;;;;;;;13.23;12.02;;;4.30;99.90;;;;;;6164281;23;20187;-80
2021/10/25 05:57:14;;;;;;;13.25;11.43;;;4.20;99.90;;;;;;6166331;23;20785;-80
2021/10/25 05:59:41;;;;;;;12.70;11.55;;;4.20;99.90;;;;;;6167678;23;20214;-80
2021/10/25 06:02:22;;;;;;;15.73;13.57;;;4.30;99.90;;;;;;6168259;23;20179;-80
2021/10/25 06:04:49;;;;;;;11.63;10.55;;;4.30;99.90;;;;;;6166794;23;20222;-85
2021/10/25 06:07:17;;;;;;;12.52;11.40;;;4.40;99.90;;;;;;6173776;23;20499;-80
2021/10/25 06:09:45;;;;;;;13.73;12.35;;;4.40;99.90;;;;;;6173575;23;20205;-80
2021/10/25 06:12:16;;;;;;;13.70;12.40;;;4.40;99.90;;;;;;6173280;23;20227;-80
2021/10/25 06:14:45;;;;;;;13.65;12.20;;;4.50;99.90;;;;;;6172601;23;20195;-80
2021/10/25 06:17:21;;;;;;;13.10;11.80;;;4.50;99.90;;;;;;6172163;23;20183;-82
2021/10/25 06:19:48;;;;;;;14.25;12.32;;;4.50;99.90;;;;;;6174844;23;20668;-81
2021/10/25 06:22:18;;;;;;;15.13;12.30;;;4.50;99.90;;;;;;6172523;23;20259;-81
2021/10/25 06:24:46;;;;;;;13.57;12.38;;;4.50;99.90;;;;;;6173339;23;20218;-81
2021/10/25 06:27:13;;;;;;;12.35;11.15;;;4.50;99.90;;;;;;6176299;23;20234;-81
2021/10/25 06:29:40;;;;;;;15.00;13.45;;;4.50;99.90;;;;;;6177065;23;20227;-81
2021/10/25 06:32:07;;;;;;;17.67;12.40;;;4.50;99.90;;;;;;6176684;23;20227;-81
2021/10/25 06:34:38;;;;;;;13.75;12.15;;;4.60;99.90;;;;;;6174281;23;20182;-81
2021/10/25 06:37:06;;;;;;;14.25;12.55;;;4.60;99.90;;;;;;6175694;23;20178;-81
2021/10/25 06:39:38;;;;;;;22.15;14.30;;;4.60;99.90;;;;;;6176206;23;20252;-81
2021/10/25 06:42:07;;;;;;;13.75;12.38;;;4.70;99.90;;;;;;6176589;23;20191;-81
2021/10/25 06:44:36;;;;;;;16.45;13.70;;;4.80;99.90;;;;;;6175920;23;20183;-81
2021/10/25 06:47:03;;;;;;;15.45;13.95;;;4.90;99.90;;;;;;6176203;23;20206;-81
2021/10/25 06:49:30;;;;;;;16.77;12.93;;;4.90;99.90;;;;;;6182107;23;20206;-80
2021/10/25 06:51:57;;;;;;;15.77;12.25;;;5.00;99.90;;;;;;6181719;23;20235;-80
2021/10/25 06:54:24;;;;;;;19.02;12.90;;;5.00;99.90;;;;;;6182709;23;20213;-81
2021/10/25 06:56:51;;;;;;;17.50;13.38;;;5.00;99.90;;;;;;6178547;23;20187;-79
2021/10/25 06:59:19;;;;;;;13.50;11.52;;;5.10;99.90;;;;;;6173714;23;20242;-79
2021/10/25 07:01:46;;;;;;;14.57;13.00;;;5.10;99.90;;;;;;6172331;23;20190;-81
2021/10/25 07:04:12;;;;;;;13.20;11.90;;;5.20;99.90;;;;;;6163762;23;20179;-79
2021/10/25 07:06:40;;;;;;;15.75;11.18;;;5.20;99.90;;;;;;6169507;23;20187;-83
2021/10/25 07:09:07;;;;;;;14.15;10.48;;;5.30;99.90;;;;;;6175127;23;20203;-82
2021/10/25 07:11:42;;;;;;;13.43;12.13;;;5.30;99.90;;;;;;6175225;23;20222;-85
2021/10/25 07:14:08;;;;;;;12.27;10.75;;;5.30;99.90;;;;;;6175430;23;20242;-80
2021/10/25 07:16:40;;;;;;;12.48;11.13;;;5.30;99.90;;;;;;6161576;23;20183;-77
2021/10/25 07:19:19;;;;;;;15.13;12.27;;;5.40;99.90;;;;;;6157042;23;20625;-76
2021/10/25 08:01:13;;;;;;;21.10;19.02;;;7.70;99.90;;;;;;6156784;23;20205;-78
2021/10/25 08:06:44;;;;;;;15.60;13.98;;;8.00;99.90;;;;;;6157786;23;20695;-78
2021/10/25 08:09:19;;;;;;;13.70;11.95;;;8.20;99.90;;;;;;6157776;23;20167;-78
2021/10/25 08:11:48;;;;;;;16.05;11.70;;;8.40;99.90;;;;;;6156813;23;20163;-78
2021/10/25 08:14:16;;;;;;;15.48;10.55;;;8.60;99.90;;;;;;6156658;23;20699;-78
2021/10/25 08:16:46;;;;;;;10.50;9.38;;;8.70;99.90;;;;;;6157130;23;20186;-78
2021/10/25 08:19:24;;;;;;;14.10;10.60;;;8.90;99.90;;;;;;6158190;23;20184;-78
2021/10/25 08:21:54;;;;;;;13.25;10.20;;;9.10;99.90;;;;;;6157810;23;20199;-78
2021/10/25 08:24:21;;;;;;;8.98;8.18;;;9.10;99.90;;;;;;6157391;23;20259;-78
2021/10/25 08:26:49;;;;;;;10.35;8.82;;;9.20;99.90;;;;;;6157578;23;20190;-78
2021/10/25 08:29:18;;;;;;;13.38;12.13;;;9.30;99.90;;;;;;6157680;23;20181;-78
2021/10/25 08:31:48;;;;;;;9.80;8.80;;;9.40;99.90;;;;;;6161573;23;20185;-79
2021/10/25 08:39:50;;;;;;;11.68;10.68;;;9.60;99.90;;;;;;6156500;23;20491;-77
2021/10/25 08:42:18;;;;;;;10.82;9.75;;;9.60;99.90;;;;;;6156998;23;20171;-78
2021/10/25 08:44:47;;;;;;;12.48;10.00;;;9.70;99.90;;;;;;6156714;23;20178;-78
2021/10/25 08:47:17;;;;;;;19.13;9.75;;;9.70;99.90;;;;;;6156181;23;20194;-78
2021/10/25 08:49:44;;;;;;;11.50;10.40;;;9.70;99.90;;;;;;6156483;23;20236;-78
2021/10/25 08:52:12;;;;;;;10.85;9.68;;;9.70;99.90;;;;;;6156918;23;20184;-78
2021/10/25 08:54:41;;;;;;;13.07;11.47;;;9.70;99.90;;;;;;6156917;23;20260;-78
2021/10/25 08:57:08;;;;;;;12.02;9.95;;;9.70;99.90;;;;;;6157008;23;20413;-78
2021/10/25 08:59:35;;;;;;;16.67;11.43;;;9.70;99.90;;;;;;6157479;23;20207;-81
2021/10/25 09:02:07;;;;;;;15.17;11.57;;;9.70;99.90;;;;;;6161614;23;20176;-81
2021/10/25 09:04:40;;;;;;;14.00;11.80;;;9.60;99.90;;;;;;6158988;23;20896;-84
2021/10/25 09:07:07;;;;;;;14.07;11.13;;;9.70;99.90;;;;;;6159087;23;20181;-82
2021/10/25 09:09:35;;;;;;;12.53;11.17;;;9.60;99.90;;;;;;6172891;23;20204;-83
2021/10/25 09:12:06;;;;;;;13.07;11.93;;;9.70;99.90;;;;;;6173808;23;20456;-84
2021/10/25 09:14:34;;;;;;;14.87;11.00;;;9.70;99.90;;;;;;6174301;23;20220;-83
2021/10/25 09:17:03;;;;;;;13.60;11.10;;;9.90;99.90;;;;;;6169099;23;20492;-79
2021/10/25 09:19:31;;;;;;;31.80;12.80;;;9.90;99.90;;;;;;6171294;23;20405;-79
2021/10/25 09:22:07;;;;;;;14.30;12.90;;;10.00;99.90;;;;;;6164925;23;20410;-79
2021/10/25 09:24:35;;;;;;;16.13;13.07;;;10.00;99.90;;;;;;6166411;23;20193;-78
2021/10/25 09:27:06;;;;;;;13.63;12.20;;;10.10;99.90;;;;;;6174535;23;20481;-79
2021/10/25 09:29:37;;;;;;;21.00;10.97;;;10.20;99.90;;;;;;6161376;23;20736;-78
2021/10/25 09:32:09;;;;;;;14.53;11.33;;;10.30;99.90;;;;;;6162212;23;20792;-79
2021/10/25 09:34:43;;;;;;;10.30;9.40;;;10.40;99.90;;;;;;6160511;23;20449;-78
2021/10/25 09:37:14;;;;;;;16.07;10.67;;;10.60;99.90;;;;;;6159997;23;20402;-78
2021/10/25 09:39:48;;;;;;;13.23;12.00;;;10.80;99.90;;;;;;6157102;23;20469;-78
2021/10/25 09:45:36;;;;;;;11.43;10.43;;;11.30;99.90;;;;;;6155295;23;20904;-78
2021/10/25 09:50:58;;;;;;;9.63;8.83;;;11.90;99.90;;;;;;6155425;23;20476;-78
2021/10/25 09:53:36;;;;;;;9.77;8.80;;;12.00;99.90;;;;;;6155631;23;20775;-78
2021/10/25 09:56:06;;;;;;;9.70;8.70;;;12.40;99.90;;;;;;6155319;23;20402;-78
2021/10/25 09:58:44;;;;;;;9.70;8.80;;;12.60;99.90;;;;;;6155263;23;20399;-78
2021/10/25 10:01:13;;;;;;;9.13;8.30;;;13.00;99.90;;;;;;6155821;23;20456;-78
2021/10/25 10:03:40;;;;;;;10.53;9.63;;;13.30;99.90;;;;;;6156361;23;20406;-78
2021/10/25 10:06:07;;;;;;;10.10;8.77;;;13.50;99.90;;;;;;6156250;23;20425;-79
2021/10/25 10:08:35;;;;;;;10.80;9.73;;;13.70;99.90;;;;;;6156334;23;20734;-83
2021/10/25 10:11:07;;;;;;;9.20;8.60;;;13.80;99.80;;;;;;6161018;23;20436;-84
2021/10/25 10:13:34;;;;;;;10.83;9.20;;;13.90;98.50;;;;;;6163806;23;20442;-84
2021/10/25 10:16:01;;;;;;;9.67;8.67;;;14.00;98.60;;;;;;6163625;23;20422;-82
2021/10/25 10:18:31;;;;;;;10.40;9.50;;;14.10;98.80;;;;;;6155919;23;20414;-78
2021/10/25 10:21:02;;;;;;;8.60;7.83;;;14.20;99.00;;;;;;6156322;23;20437;-81
2021/10/25 10:23:30;;;;;;;11.07;8.33;;;14.40;98.80;;;;;;6159558;23;20400;-79
2021/10/25 10:25:59;;;;;;;7.93;7.03;;;14.60;98.00;;;;;;6156941;23;20746;-79
2021/10/25 10:28:37;;;;;;;7.97;7.27;;;14.80;97.60;;;;;;6158850;23;20423;-83
2021/10/25 10:31:06;;;;;;;9.60;8.80;;;15.10;97.20;;;;;;6158551;23;20436;-81
2021/10/25 10:33:36;;;;;;;17.63;8.07;;;15.30;97.30;;;;;;6154765;23;20444;-79
2021/10/25 10:36:15;;;;;;;9.40;8.40;;;15.60;96.80;;;;;;6154717;23;20891;-79
2021/10/25 10:38:53;;;;;;;6.73;6.13;;;15.90;96.80;;;;;;6155323;23;20794;-79
2021/10/25 10:41:35;;;;;;;9.87;6.40;;;16.30;96.70;;;;;;6154151;23;20428;-79
2021/10/25 10:44:06;;;;;;;8.00;7.30;;;16.70;95.40;;;;;;6155356;23;20404;-80
2021/10/25 10:46:41;;;;;;;7.40;6.87;;;17.30;95.00;;;;;;6155047;23;20438;-80
2021/10/25 10:49:20;;;;;;;8.63;7.10;;;17.60;93.70;;;;;;6155201;23;20409;-80
2021/10/25 10:52:12;;;;;;;6.37;5.93;;;18.10;93.20;;;;;;6154162;23;20453;-79
2021/10/25 10:54:44;;;;;;;6.90;6.40;;;18.40;92.20;;;;;;6155711;23;20525;-79
2021/10/25 10:57:24;;;;;;;7.00;6.43;;;18.70;91.70;;;;;;6155602;23;20425;-79
2021/10/25 10:59:59;;;;;;;7.17;6.43;;;18.90;91.30;;;;;;6154200;23;20451;-82
2021/10/25 11:02:26;;;;;;;7.00;6.40;;;18.80;90.60;;;;;;6154372;23;20695;-80
2021/10/25 11:05:09;;;;;;;6.17;5.67;;;18.70;90.70;;;;;;6155150;23;20918;-80
2021/10/25 11:07:39;;;;;;;8.00;6.17;;;18.60;90.80;;;;;;6154604;23;20492;-80
2021/10/25 11:10:09;;;;;;;7.73;7.10;;;18.50;90.60;;;;;;6155332;23;20770;-80
2021/10/25 11:12:42;;;;;;;8.30;7.00;;;18.30;90.60;;;;;;6154908;23;20698;-80
2021/10/25 11:15:13;;;;;;;9.07;6.70;;;18.20;90.90;;;;;;6154238;23;20492;-80
2021/10/25 11:17:41;;;;;;;8.20;7.40;;;18.00;90.90;;;;;;6156085;23;20406;-80
2021/10/25 11:20:09;;;;;;;7.93;7.33;;;18.10;91.00;;;;;;6155085;23;20770;-80
2021/10/25 11:22:39;;;;;;;8.43;7.70;;;18.50;90.90;;;;;;6154383;23;20992;-80
2021/10/25 11:25:09;;;;;;;7.10;6.50;;;18.90;90.50;;;;;;6162913;23;20434;-80
2021/10/25 11:27:39;;;;;;;9.63;7.73;;;19.50;90.00;;;;;;6157236;23;20426;-81
2021/10/25 11:30:12;;;;;;;10.43;6.97;;;20.50;89.70;;;;;;6154681;23;20430;-80
2021/10/25 11:32:40;;;;;;;7.70;7.10;;;21.20;84.30;;;;;;6156956;23;20398;-80
2021/10/25 11:35:10;;;;;;;6.20;5.60;;;21.80;84.60;;;;;;6156857;23;20452;-81
2021/10/25 11:37:38;;;;;;;6.00;5.60;;;22.20;78.90;;;;;;6156158;23;20467;-80
2021/10/25 11:40:08;;;;;;;6.27;5.63;;;22.60;78.50;;;;;;6155947;23;20444;-80
2021/10/25 11:42:38;;;;;;;6.30;5.80;;;22.60;74.50;;;;;;6156824;23;20417;-80
2021/10/25 11:45:07;;;;;;;5.90;5.30;;;23.50;74.30;;;;;;6156671;23;20409;-80
2021/10/25 11:47:37;;;;;;;6.07;5.47;;;23.40;72.90;;;;;;6162722;23;20408;-80
2021/10/25 11:50:06;;;;;;;5.87;5.37;;;23.70;72.60;;;;;;6159270;23;20559;-80
2021/10/25 11:52:38;;;;;;;5.73;5.33;;;24.10;71.10;;;;;;6160039;23;20906;-84
2021/10/25 11:55:07;;;;;;;5.03;4.63;;;24.30;69.60;;;;;;6162797;23;20481;-82
2021/10/25 12:02:47;;;;;;;7.17;6.57;;;24.90;66.40;;;;;;6160922;23;20787;-83
2021/10/25 12:05:20;;;;;;;7.50;5.20;;;25.10;64.40;;;;;;6167578;23;20837;-84
2021/10/25 12:07:49;;;;;;;5.80;5.27;;;25.50;64.80;;;;;;6168345;23;20437;-81
2021/10/25 12:10:17;;;;;;;5.37;4.97;;;25.80;62.00;;;;;;6164528;23;20414;-83
2021/10/25 12:12:44;;;;;;;4.80;4.50;;;25.80;61.60;;;;;;6167427;23;20431;-82
2021/10/25 12:15:16;;;;;;;6.50;5.90;;;26.20;60.00;;;;;;6167858;23;20412;-81
2021/10/25 12:17:45;;;;;;;5.90;5.33;;;26.20;59.70;;;;;;6164278;23;20488;-81
2021/10/25 12:20:23;;;;;;;4.77;4.37;;;26.30;58.90;;;;;;6166926;23;20451;-81
2021/10/25 12:22:58;;;;;;;4.40;4.00;;;26.70;58.00;;;;;;6169257;23;20455;-81
2021/10/25 12:25:25;;;;;;;4.23;3.83;;;27.40;56.80;;;;;;6169689;23;20441;-81
2021/10/25 12:27:58;;;;;;;4.73;3.80;;;27.80;54.40;;;;;;6168924;23;20459;-83
2021/10/25 12:30:25;;;;;;;4.23;3.83;;;28.00;54.00;;;;;;6174216;23;20410;-83
2021/10/25 12:32:54;;;;;;;5.00;4.60;;;28.20;51.40;;;;;;6175155;23;20449;-83
2021/10/25 12:35:32;;;;;;;4.40;3.83;;;27.80;51.80;;;;;;6174238;23;20801;-83
2021/10/25 12:38:00;;;;;;;5.77;3.93;;;27.30;52.50;;;;;;6173574;23;20440;-83
2021/10/25 12:40:27;;;;;;;4.97;3.50;;;26.80;52.60;;;;;;6174049;23;20783;-83
2021/10/25 12:43:01;;;;;;;3.90;3.60;;;26.10;52.90;;;;;;6173862;23;20407;-83
2021/10/25 12:45:31;;;;;;;7.70;3.87;;;25.50;55.10;;;;;;6171242;23;20522;-82
2021/10/25 12:48:00;;;;;;;3.97;3.67;;;25.20;55.50;;;;;;6170751;23;20533;-83
2021/10/25 12:50:33;;;;;;;5.10;3.77;;;24.70;56.20;;;;;;6173062;23;20418;-83
2021/10/25 12:53:05;;;;;;;7.50;4.53;;;24.10;57.40;;;;;;6173304;23;20409;-82
2021/10/25 12:55:33;;;;;;;5.00;4.50;;;23.80;58.70;;;;;;6170656;23;20475;-83
2021/10/25 12:58:00;;;;;;;5.23;4.73;;;23.70;59.20;;;;;;6171591;23;20790;-83
2021/10/25 13:00:27;;;;;;;4.00;3.60;;;23.70;59.30;;;;;;6173138;23;20438;-83
2021/10/25 13:02:56;;;;;;;4.43;3.80;;;23.90;59.40;;;;;;6171942;23;20500;-83
2021/10/25 13:05:25;;;;;;;7.60;4.07;;;23.80;57.40;;;;;;6171274;23;20450;-83
2021/10/25 13:07:55;;;;;;;5.87;4.07;;;23.70;57.10;;;;;;6174121;23;20454;-83
2021/10/25 13:10:24;;;;;;;5.70;3.60;;;24.00;56.30;;;;;;6174681;23;20379;-83
2021/10/25 13:12:52;;;;;;;5.03;2.80;;;24.40;55.10;;;;;;6174258;23;20504;-83
2021/10/25 13:15:20;;;;;;;3.90;3.20;;;25.10;55.00;;;;;;6173259;23;20435;-83
2021/10/25 13:17:47;;;;;;;4.23;3.40;;;25.20;53.20;;;;;;6174867;23;20434;-83
2021/10/25 13:20:17;;;;;;;6.30;4.93;;;25.10;51.70;;;;;;6169116;23;20474;-81
2021/10/25 13:22:45;;;;;;;3.87;3.57;;;24.90;51.20;;;;;;6168512;23;20401;-81
2021/10/25 13:25:13;;;;;;;4.13;3.70;;;24.30;51.90;;;;;;6170641;23;20451;-81
2021/10/25 13:27:42;;;;;;;5.47;4.97;;;24.20;52.90;;;;;;6173067;23;20462;-81
2021/10/25 13:30:11;;;;;;;6.07;4.37;;;23.80;52.00;;;;;;6166058;23;20921;-81
2021/10/25 13:32:38;;;;;;;4.33;3.93;;;23.60;52.60;;;;;;6164094;23;20515;-81
2021/10/25 13:35:06;;;;;;;2.97;2.77;;;23.20;53.10;;;;;;6165498;23;21004;-81
2021/10/25 13:37:33;;;;;;;2.67;2.47;;;22.80;51.80;;;;;;6164896;23;20429;-81
2021/10/25 13:40:00;;;;;;;2.27;2.10;;;22.50;52.60;;;;;;6163659;23;20407;-81
2021/10/25 13:42:29;;;;;;;3.43;2.57;;;22.40;51.70;;;;;;6164884;23;20412;-82
2021/10/25 13:44:56;;;;;;;2.00;1.80;;;22.10;51.00;;;;;;6165489;23;20500;-82
2021/10/25 13:47:22;;;;;;;2.97;2.60;;;21.90;50.00;;;;;;6162805;23;20495;-82
2021/10/25 13:49:49;;;;;;;3.77;3.33;;;21.70;51.20;;;;;;6165270;23;20478;-82
2021/10/25 13:52:16;;;;;;;6.13;3.07;;;21.70;54.50;;;;;;6165713;23;20406;-82
2021/10/25 13:54:43;;;;;;;3.43;2.70;;;21.60;55.80;;;;;;6168294;23;20414;-81
2021/10/25 13:57:10;;;;;;;3.50;2.97;;;21.50;55.30;;;;;;6168021;23;20425;-82
2021/10/25 13:59:39;;;;;;;2.93;2.60;;;21.40;55.00;;;;;;6168643;23;20412;-82
2021/10/25 14:02:10;;;;;;;2.40;2.20;;;21.40;55.60;;;;;;6167571;23;20419;-81
2021/10/25 14:04:45;;;;;;;4.43;3.20;;;21.10;56.50;;;;;;6167663;23;20498;-81
2021/10/25 14:07:14;;;;;;;2.50;2.30;;;21.00;57.10;;;;;;6168828;23;20767;-82
2021/10/25 14:09:43;;;;;;;3.10;2.90;;;20.90;57.70;;;;;;6171226;23;20417;-82